East Aurora, New York
Current Conditions -  °F | °C
As of 9:54 AM on Friday 31 Oct 2014 (Local Time) from KBUF Reporting Station
Overcast Overcast  
Wind Chill: 42°   Ceiling: 9000
Heat Index: 45°   Visibility: 10mi
Dew Point: 38°   Wind: 6mph
Humidity: 76%   Direction: 160°SSE
Pressure: 29.94"   Gusts: NA
Location:  42.77°N, 78.61°W
Report Text: KBUF 311354Z 16005KT 10SM FEW027 FEW065 BKN090 OVC150 07/03 A2994 RMK AO2 SLP145 T00720033
Loading
Personal Weather Stations






























Interactive Weather Map New forecast layout! Learn more

10-Day Weather Forecast

Advertisements
Track Severe Weather on mobile